Terminal Aerodrome Forecast
Issued by NWS

Home | Current Version | Previous Version | Text Only | Print | Product List | Glossary On
Versions: 1 2 3 4 5 6 7 8 9 10 11 12 13 14 15 16 17 18
000
FTUS44 KTSA 040600 AAA
TAFXNA
TAF AMD
KXNA 040600Z 0406/0506 00000KT 5SM BR SCT004
      TEMPO 0408/0412 1SM BR BKN004
     FM041500 VRB03KT P6SM SCT250
     FM041800 17005KT P6SM SCT050
     FM050100 17003KT P6SM FEW250=

USA.gov is the U.S. government's official web portal to all federal, state and local government web resources and services.